LiveFlight Tracker CHF526





Flight Info CHF526



Flight: CHF526 PIC: Diyu Ye
Departure: KDFW Arrival: ZUUU
Registration: B-2027 Aircraft: BOEING 777F
Current Alt: 0 FT GS: 0 KT
Last Info: 2017-08-13 01:26:12
Distance: 1 NM Status: Arrived


ACARS Info CHF526



Pilot Flight Time ALT GS Latitude Longitude
CSN583 CHF526 2017-08-13 01:26:12 0 0 30.5676496814212 103.950129470575
CSN583 CHF526 2017-08-13 01:25:58 0 0 30.5676496814212 103.950129470575
CSN583 CHF526 2017-08-13 01:23:58 0 2 30.566788741663 103.949714146526
CSN583 CHF526 2017-08-13 01:21:56 0 6 30.571298182084 103.947944678101
CSN583 CHF526 2017-08-13 01:19:53 0 6 30.575970514179 103.947076837394
CSN583 CHF526 2017-08-13 01:17:52 2356 161 30.6322819783178 103.973228649854
CSN583 CHF526 2017-08-13 01:15:50 3996 255 30.7365837596185 104.008721890433
CSN583 CHF526 2017-08-13 01:13:47 6565 348 30.7564508211933 104.177723659998
CSN583 CHF526 2017-08-13 01:11:46 9711 391 30.8682088948814 104.384458347703
CSN583 CHF526 2017-08-13 01:09:45 11696 406 31.0016563388665 104.594676020297
CSN583 CHF526 2017-08-13 01:07:44 14934 432 31.1391677713009 104.814133373658
CSN583 CHF526 2017-08-13 01:05:43 19140 467 31.2876415930092 105.049842677467
CSN583 CHF526 2017-08-13 01:03:42 23471 505 31.4476716522708 105.304241513318
CSN583 CHF526 2017-08-13 01:01:41 28570 538 31.624552744342 105.58273116152
CSN583 CHF526 2017-08-13 00:59:39 35253 500 31.7950420992522 105.853216874354
CSN583 CHF526 2017-08-13 00:57:38 35817 546 31.9668566791744 106.127236727945
CSN583 CHF526 2017-08-13 00:55:37 35814 564 32.152544529346 106.426401617756
CSN583 CHF526 2017-08-13 00:53:34 35814 564 32.3380688651879 106.725735022403
CSN583 CHF526 2017-08-13 00:51:33 35814 564 32.5224618084892 107.024559528861
CSN583 CHF526 2017-08-13 00:49:32 35820 566 32.7083504606673 107.328511786026
CSN583 CHF526 2017-08-13 00:47:31 35814 564 32.8938681432699 107.628304252098
CSN583 CHF526 2017-08-13 00:45:30 35814 564 33.0823935923211 107.93078773039
CSN583 CHF526 2017-08-13 00:38:29 35814 560 33.9472320364773 108.687816201124
CSN583 CHF526 2017-08-13 00:36:28 35784 550 34.225451963623 108.851266469608
CSN583 CHF526 2017-08-13 00:34:27 35781 562 34.5356296670711 108.903259082428
CSN583 CHF526 2017-08-13 00:32:26 35807 566 34.8378364753873 109.002017792075
CSN583 CHF526 2017-08-13 00:22:18 35843 562 36.1385830887349 109.959602109594
CSN583 CHF526 2017-08-13 00:20:17 35846 568 36.3288546694617 110.272177533933
CSN583 CHF526 2017-08-13 00:18:16 35879 566 36.5200562234689 110.58496594083
CSN583 CHF526 2017-08-13 00:16:15 35876 562 36.712794490026 110.89648831358
CSN583 CHF526 2017-08-13 00:14:14 35899 562 36.9040274953181 111.208194076417
CSN583 CHF526 2017-08-13 00:12:13 35906 562 37.0937036649454 111.520192162193
CSN583 CHF526 2017-08-13 00:10:11 35906 564 37.2848918931986 111.837701687689
CSN583 CHF526 2017-08-13 00:08:10 35906 566 37.4744499898701 112.156087771643
CSN583 CHF526 2017-08-13 00:06:09 35912 564 37.6314986675041 112.498562834249
CSN583 CHF526 2017-08-13 00:04:08 35906 558 37.9110136863153 112.58155336998
CSN583 CHF526 2017-08-13 00:02:07 35906 564 38.2200256708387 112.508676213316
CSN583 CHF526 2017-08-13 00:00:07 35902 558 38.5273364462652 112.435567805346
CSN583 CHF526 2017-08-12 23:58:05 35906 560 38.8341432898028 112.361974267482
CSN583 CHF526 2017-08-12 23:56:04 35906 558 39.1426766897694 112.287145624295
CSN583 CHF526 2017-08-12 23:54:03 35906 558 39.4495580901336 112.214578657978
CSN583 CHF526 2017-08-12 23:52:02 35906 558 39.7506526143102 112.115832425195
CSN583 CHF526 2017-08-12 23:50:02 35328 554 40.0531140508791 112.013952593272
CSN583 CHF526 2017-08-12 23:48:00 34482 554 40.3528692143641 111.911214717446
CSN583 CHF526 2017-08-12 23:45:59 33927 554 40.6557660613663 111.874610998283
CSN583 CHF526 2017-08-12 23:43:58 33934 554 40.9098805694818 112.103087973762
CSN583 CHF526 2017-08-12 23:41:57 33937 554 41.1467212663445 112.366711238515
CSN583 CHF526 2017-08-12 23:39:56 33937 554 41.38249704484 112.630853359034
CSN583 CHF526 2017-08-12 23:37:55 33934 554 41.6205712245922 112.89847462597
CSN583 CHF526 2017-08-12 23:35:53 33937 554 41.8637986481151 113.149912465754
CSN583 CHF526 2017-08-12 23:33:52 33934 554 42.1728602755808 113.163305068023
CSN583 CHF526 2017-08-12 23:31:51 33904 556 42.4838136369038 113.173116918769
CSN583 CHF526 2017-08-12 23:29:50 33904 556 42.7942647115935 113.183026429522
CSN583 CHF526 2017-08-12 23:27:49 33904 554 43.1042331509952 113.193035730728
CSN583 CHF526 2017-08-12 23:25:48 33904 554 43.4156219164773 113.203368022171
CSN583 CHF526 2017-08-12 23:23:46 33904 556 43.7260178501464 113.213767788076
CSN583 CHF526 2017-08-12 23:21:45 33904 556 44.0366253549818 113.224282765263
CSN583 CHF526 2017-08-12 23:19:44 33904 556 44.3483088734536 113.234940868803
CSN583 CHF526 2017-08-12 23:17:43 33904 556 44.6587322239666 113.242795820351
CSN583 CHF526 2017-08-12 23:15:43 33930 560 44.9631748881361 113.32220251422
CSN583 CHF526 2017-08-12 23:13:41 33934 560 45.2645625788414 113.444429238282
CSN583 CHF526 2017-08-12 23:11:40 33934 560 45.5653949580294 113.567614428164
CSN583 CHF526 2017-08-12 23:09:39 33904 560 45.8654703296418 113.691864170954
CSN583 CHF526 2017-08-12 23:07:37 33934 560 46.1668760446472 113.818463607351
CSN583 CHF526 2017-08-12 23:05:36 33934 560 46.4673718465757 113.944679826777
CSN583 CHF526 2017-08-12 23:03:35 33934 560 46.7662858637568 114.073350183315
CSN583 CHF526 2017-08-12 23:01:34 33934 562 47.0651361141496 114.203384347139
CSN583 CHF526 2017-08-12 22:59:33 33934 558 47.3658386038398 114.33549074119
CSN583 CHF526 2017-08-12 22:57:32 33934 558 47.6653050580023 114.46869982071
CSN583 CHF526 2017-08-12 22:55:31 33934 560 47.9654065381003 114.603023370952
CSN583 CHF526 2017-08-12 22:53:30 33927 556 48.2611281701347 114.755208612822
CSN583 CHF526 2017-08-12 22:51:28 33937 560 48.5543675004054 114.92831453425
CSN583 CHF526 2017-08-12 22:49:27 33934 554 48.8448681834745 115.101642255852
CSN583 CHF526 2017-08-12 22:47:26 33927 560 49.1356330560981 115.277357742437
CSN583 CHF526 2017-08-12 22:45:24 33934 560 49.4280511247547 115.456410460084
CSN583 CHF526 2017-08-12 22:43:23 33924 562 49.7168918644537 115.634546874479
CSN583 CHF526 2017-08-12 22:41:22 33930 558 49.9850374501116 115.87142218711
CSN583 CHF526 2017-08-12 22:39:20 33934 558 50.2142829920733 116.203900861654
CSN583 CHF526 2017-08-12 22:37:19 33930 560 50.4542461693385 116.514688320044
CSN583 CHF526 2017-08-12 22:35:18 33930 558 50.7258736427043 116.763582867548
CSN583 CHF526 2017-08-12 22:33:17 33934 558 50.9955308006935 117.013880805305
CSN583 CHF526 2017-08-12 22:31:16 33937 562 51.261198707674 117.264329902039
CSN583 CHF526 2017-08-12 22:29:15 33934 560 51.5340132140973 117.524378765679
CSN583 CHF526 2017-08-12 22:27:13 33934 560 51.8013429388444 117.782016273694
CSN583 CHF526 2017-08-12 22:25:12 33934 560 52.0689711789756 118.04596909466
CSN583 CHF526 2017-08-12 22:23:11 33934 558 52.3364723290403 118.311194257202
CSN583 CHF526 2017-08-12 22:21:10 33934 558 52.6033979227428 118.580106265756
CSN583 CHF526 2017-08-12 22:19:09 33934 558 52.8697854252823 118.852192004113
CSN583 CHF526 2017-08-12 22:17:08 33934 558 53.135479344484 119.127564229297
CSN583 CHF526 2017-08-12 22:15:07 33934 558 53.3978739179409 119.404930613466
CSN583 CHF526 2017-08-12 22:13:06 33934 558 53.6620730020482 119.686514060739
CSN583 CHF526 2017-08-12 22:11:05 33934 558 53.9306385015931 119.958344086959
CSN583 CHF526 2017-08-12 22:09:05 33934 558 54.2177927780309 120.254041041248
CSN583 CHF526 2017-08-12 22:06:54 33934 558 54.5193509607616 120.569476265625
CSN583 CHF526 2017-08-12 22:04:37 33963 558 54.8342671912125 120.90128123771
CSN583 CHF526 2017-08-12 22:02:14 33963 558 55.1026879765074 121.189789056542
CSN583 CHF526 2017-08-12 22:00:12 33963 558 55.3716060127502 121.483349669349
CSN583 CHF526 2017-08-12 21:58:09 33963 558 55.6383171655659 121.778135751251
CSN583 CHF526 2017-08-12 21:56:07 33963 556 55.90292338677 122.073542737923
CSN583 CHF526 2017-08-12 21:54:06 33963 556 56.1655013796014 122.373078359583
CSN583 CHF526 2017-08-12 21:52:05 33963 556 56.4278782855632 122.676608647118
CSN583 CHF526 2017-08-12 21:50:04 33963 556 56.6899105455654 122.984718250383
CSN583 CHF526 2017-08-12 21:48:03 33963 556 56.9505599957166 123.296129759668
CSN583 CHF526 2017-08-12 21:46:02 33963 556 57.2127136210941 123.614930418942
CSN583 CHF526 2017-08-12 21:44:00 33963 554 57.4716704922367 123.935659175463
CSN583 CHF526 2017-08-12 21:41:59 33963 554 57.7291313379484 124.259131620183
CSN583 CHF526 2017-08-12 21:39:58 33963 554 57.9855040051726 124.589117962394
CSN583 CHF526 2017-08-12 21:37:57 33993 554 58.2424663121525 124.922188123914
CSN583 CHF526 2017-08-12 21:35:56 33990 554 58.4971780638603 125.260436668555
CSN583 CHF526 2017-08-12 21:33:55 33993 554 58.723079404497 125.665173678081
CSN583 CHF526 2017-08-12 21:31:54 33993 552 58.9267534983774 126.118734492005
CSN583 CHF526 2017-08-12 21:29:52 33573 554 59.1278133444297 126.568687507387
CSN583 CHF526 2017-08-12 19:00:38 31575 554 70.1462017328989 175.37378254129
CSN583 CHF526 2017-08-12 18:58:37 31581 552 70.1971676210923 176.276130228523
CSN583 CHF526 2017-08-12 18:56:36 31572 556 70.2452832102755 177.184856429498
CSN583 CHF526 2017-08-12 18:54:35 31578 556 70.2886696961752 178.094133600354
CSN583 CHF526 2017-08-12 18:52:34 31578 556 70.3274909640545 179.00832459134
CSN583 CHF526 2017-08-12 18:50:34 31578 554 70.3617312934117 179.926727513581
CSN583 CHF526 2017-08-12 18:48:32 31581 554 70.3912581275894 -179.152536812197
CSN583 CHF526 2017-08-12 18:46:31 31581 554 70.4160921759669 -178.230034612575
CSN583 CHF526 2017-08-12 18:44:29 31585 554 70.4362071011976 -177.306323641805
CSN583 CHF526 2017-08-12 18:42:29 31581 554 70.4516084448585 -176.380745068346
CSN583 CHF526 2017-08-12 18:40:28 31578 556 70.4623117308937 -175.453455580313
CSN583 CHF526 2017-08-12 18:38:26 31581 554 70.4682525129162 -174.525455738574
CSN583 CHF526 2017-08-12 18:36:26 31578 556 70.4694832487601 -173.595462100642
CSN583 CHF526 2017-08-12 18:34:24 31578 556 70.4659810248412 -172.668206755228
CSN583 CHF526 2017-08-12 18:32:23 31575 554 70.4576609521915 -171.736639321005
CSN583 CHF526 2017-08-12 18:30:24 31578 558 70.4446633478522 -170.809955774454
CSN583 CHF526 2017-08-12 18:28:21 31575 556 70.4238227026342 -169.882966150753
CSN583 CHF526 2017-08-12 18:26:20 31591 554 70.4065744819989 -168.957130365086
CSN583 CHF526 2017-08-12 18:24:19 31578 554 70.4355559389349 -168.036218521892
CSN583 CHF526 2017-08-12 18:22:18 31581 556 70.4609255140302 -167.111377649608
CSN583 CHF526 2017-08-12 18:20:17 31578 556 70.4817010800807 -166.181911832682
CSN583 CHF526 2017-08-12 18:18:16 31578 554 70.4976687397725 -165.25241211165
CSN583 CHF526 2017-08-12 18:16:16 31578 558 70.5089044124757 -164.319615528102
CSN583 CHF526 2017-08-12 18:14:14 31581 554 70.5154003244656 -163.387197246354
CSN583 CHF526 2017-08-12 18:12:13 31578 554 70.5170695930906 -162.455852930953
CSN583 CHF526 2017-08-12 18:10:12 31581 556 70.5139875986596 -161.521781200269
CSN583 CHF526 2017-08-12 18:08:11 31578 556 70.50616026092 -160.590784075691
CSN583 CHF526 2017-08-12 18:06:10 31578 556 70.4935125061786 -159.657344615497
CSN583 CHF526 2017-08-12 18:04:09 31581 558 70.4761415006098 -158.728652256175
CSN583 CHF526 2017-08-12 18:02:08 31581 556 70.4540615652962 -157.801894057013
CSN583 CHF526 2017-08-12 18:00:07 31578 556 70.4271957991296 -156.875463740304
CSN583 CHF526 2017-08-12 17:58:06 31581 556 70.3956875598174 -155.953226592605
CSN583 CHF526 2017-08-12 17:56:05 31578 558 70.3593914837256 -155.031045620853
CSN583 CHF526 2017-08-12 17:54:04 31578 556 70.3183268300174 -154.111487753132
CSN583 CHF526 2017-08-12 17:52:03 31578 558 70.2728096873811 -153.198927267817
CSN583 CHF526 2017-08-12 17:50:02 31581 558 70.2224374757724 -152.286918072635
CSN583 CHF526 2017-08-12 17:48:01 31581 558 70.1676043001338 -151.381377681557
CSN583 CHF526 2017-08-12 17:46:00 31578 556 70.1081742495387 -150.479822979746
CSN583 CHF526 2017-08-12 17:43:59 31578 554 70.0444327459867 -149.586615974721
CSN583 CHF526 2017-08-12 17:41:58 31578 556 69.976013155893 -148.695840717827
CSN583 CHF526 2017-08-12 17:39:57 31578 556 69.9032050883145 -147.811595644492
CSN583 CHF526 2017-08-12 17:37:56 31578 558 69.8262429802265 -146.936425062541
CSN583 CHF526 2017-08-12 17:35:55 31578 558 69.7447237139046 -146.064505654913
CSN583 CHF526 2017-08-12 17:33:54 31578 556 69.6589110911768 -145.19969884987
CSN583 CHF526 2017-08-12 17:31:53 31581 556 69.5692762620284 -144.345510422699
CSN583 CHF526 2017-08-12 17:29:52 31575 558 69.4749096919649 -143.493413877909
CSN583 CHF526 2017-08-12 17:27:51 31578 558 69.3765431690666 -142.650297484365
CSN583 CHF526 2017-08-12 17:25:50 31578 556 69.2718276286952 -141.818868851807
CSN583 CHF526 2017-08-12 17:23:49 31581 552 69.1687917106101 -140.988501616525
CSN583 CHF526 2017-08-12 17:21:48 31578 556 69.0903371306398 -140.144408855524
CSN583 CHF526 2017-08-12 17:19:47 31575 554 69.0080891764242 -139.308510552591
CSN583 CHF526 2017-08-12 17:17:46 31575 560 68.921053625554 -138.47205825224
CSN583 CHF526 2017-08-12 17:15:45 31578 554 68.8301805541695 -137.644180094256
CSN583 CHF526 2017-08-12 17:13:44 31578 556 68.7354222482396 -136.824039690444
CSN583 CHF526 2017-08-12 17:11:43 31581 556 68.6365657811478 -136.009735261984
CSN583 CHF526 2017-08-12 17:09:42 31332 556 68.5338463564254 -135.202813867801
CSN583 CHF526 2017-08-12 17:07:41 30512 556 68.4250476466151 -134.407636528189
CSN583 CHF526 2017-08-12 17:05:40 29573 558 68.3149198703454 -133.616403890389
CSN583 CHF526 2017-08-12 17:03:39 29573 560 68.1026206767144 -133.001149310751
CSN583 CHF526 2017-08-12 17:01:38 29580 558 67.8772157082408 -132.420171695611
CSN583 CHF526 2017-08-12 16:59:37 29573 558 67.6505217458598 -131.851018031903
CSN583 CHF526 2017-08-12 16:57:36 29577 556 67.4224565538196 -131.293920143995
CSN583 CHF526 2017-08-12 16:55:35 29580 560 67.1917850910034 -130.745729988838
CSN583 CHF526 2017-08-12 16:53:34 29580 558 66.9599449798906 -130.209628664852
CSN583 CHF526 2017-08-12 16:51:33 29577 560 66.7264554245945 -129.683885271312
CSN583 CHF526 2017-08-12 16:49:32 29577 556 66.4896914928245 -129.169730694433
CSN583 CHF526 2017-08-12 16:47:31 29577 560 66.2537923131268 -128.659937063448
CSN583 CHF526 2017-08-12 16:45:30 29583 556 66.0116249157692 -128.166351272368
CSN583 CHF526 2017-08-12 16:43:29 29577 560 65.7684881335924 -127.685135005001
CSN583 CHF526 2017-08-12 16:41:28 29583 558 65.5233780062128 -127.214833203576
CSN583 CHF526 2017-08-12 16:39:27 29580 558 65.2776642261822 -126.74672166412
CSN583 CHF526 2017-08-12 16:37:26 29580 558 65.0258181155758 -126.303420874948
CSN583 CHF526 2017-08-12 16:35:25 29577 558 64.7734076706603 -125.871028124466
CSN583 CHF526 2017-08-12 16:33:24 29580 562 64.5176402954503 -125.442607486094
CSN583 CHF526 2017-08-12 16:31:23 29580 560 64.2618843070169 -125.024140336352
CSN583 CHF526 2017-08-12 16:29:22 29577 560 64.0044890157972 -124.612566174023
CSN583 CHF526 2017-08-12 16:27:21 29580 560 63.7460880636121 -124.208793537998
CSN583 CHF526 2017-08-12 16:25:21 29577 562 63.4814260812329 -123.807654589652
CSN583 CHF526 2017-08-12 16:23:17 29577 558 63.221895239788 -123.418608894525
CSN583 CHF526 2017-08-12 16:21:16 29583 558 62.9645093091721 -123.022482878666
CSN583 CHF526 2017-08-12 16:19:15 29580 560 62.7051644024211 -122.633591501931
CSN583 CHF526 2017-08-12 16:17:14 29570 558 62.4471062587489 -122.253499345679
CSN583 CHF526 2017-08-12 16:15:13 29580 560 62.1866292378395 -121.878227563885
CSN583 CHF526 2017-08-12 16:13:12 29580 560 61.925185798399 -121.510234475913
CSN583 CHF526 2017-08-12 16:11:11 29583 560 61.6653784674066 -121.139068545494
CSN583 CHF526 2017-08-12 16:09:10 29580 560 61.4065989630219 -120.765840745067
CSN583 CHF526 2017-08-12 16:07:09 29610 564 61.1480587711264 -120.399840143601
CSN583 CHF526 2017-08-12 16:05:08 29610 558 60.8878492163357 -120.038729670909
CSN583 CHF526 2017-08-12 16:03:07 29636 562 60.6261560089005 -119.682855047918
CSN583 CHF526 2017-08-12 16:01:07 29672 560 60.3588302402663 -119.326567839389
CSN583 CHF526 2017-08-12 15:59:03 29708 562 60.0938171683819 -118.980188445151
CSN583 CHF526 2017-08-12 15:57:02 29692 566 59.8273184242299 -118.638674969574
CSN583 CHF526 2017-08-12 15:55:01 29731 566 59.5605007164104 -118.303169264176
CSN583 CHF526 2017-08-12 15:53:00 29721 562 59.2926595578737 -117.972878713246
CSN583 CHF526 2017-08-12 15:50:59 29760 566 59.0250616342934 -117.648965140165
CSN583 CHF526 2017-08-12 15:48:57 29783 564 58.7545638908704 -117.329163129918
CSN583 CHF526 2017-08-12 15:46:56 29777 564 58.4933202794551 -116.996049158603
CSN583 CHF526 2017-08-12 15:44:56 29813 566 58.2487456741532 -116.611191357102
CSN583 CHF526 2017-08-12 15:42:54 29816 562 58.0043486999373 -116.233352134912
CSN583 CHF526 2017-08-12 15:40:53 29846 568 57.7591386077139 -115.861051467672
CSN583 CHF526 2017-08-12 15:38:53 29872 560 57.5119549865258 -115.492500192692
CSN583 CHF526 2017-08-12 15:36:51 29862 564 57.2641671958059 -115.129601048396
CSN583 CHF526 2017-08-12 15:34:50 29905 560 57.0160465237798 -114.772529968866
CSN583 CHF526 2017-08-12 15:32:49 29938 568 56.7660925581525 -114.419039269168
CSN583 CHF526 2017-08-12 15:30:48 29938 568 56.5143791602935 -114.069177055164
CSN583 CHF526 2017-08-12 15:28:47 29961 566 56.2616480747758 -113.723871468389
CSN583 CHF526 2017-08-12 15:26:46 29961 568 56.0071481389086 -113.382046061794
CSN583 CHF526 2017-08-12 15:24:45 29990 568 55.7524295665593 -113.045565031712
CSN583 CHF526 2017-08-12 15:22:44 29990 568 55.4954353681622 -112.711707891272
CSN583 CHF526 2017-08-12 15:20:43 30020 568 55.2388267097522 -112.383811986358
CSN583 CHF526 2017-08-12 15:18:42 30043 566 54.9811223725242 -112.059907596898
CSN583 CHF526 2017-08-12 15:16:41 30049 562 54.7232521520581 -111.740904810995
CSN583 CHF526 2017-08-12 15:14:40 30085 562 54.4653982166903 -111.427024911854
CSN583 CHF526 2017-08-12 15:12:39 30082 564 54.205997588225 -111.116195316281
CSN583 CHF526 2017-08-12 15:10:38 30082 564 53.9473453982177 -110.810993110077
CSN583 CHF526 2017-08-12 15:08:37 30082 566 53.6878592860042 -110.509981823387
CSN583 CHF526 2017-08-12 15:06:36 30089 562 53.4270313898272 -110.207926470649
CSN583 CHF526 2017-08-12 15:04:35 30082 566 53.1535985038232 -109.945832549692
CSN583 CHF526 2017-08-12 15:02:33 30079 564 52.8697710008526 -109.707402046018
CSN583 CHF526 2017-08-12 15:00:32 30082 562 52.5876828716632 -109.473430348187
CSN583 CHF526 2017-08-12 14:58:31 30079 564 52.3056807248076 -109.242919988828
CSN583 CHF526 2017-08-12 14:56:30 30079 562 52.0228083709393 -109.014975954198
CSN583 CHF526 2017-08-12 14:54:29 30115 560 51.7401659496313 -108.790438842761
CSN583 CHF526 2017-08-12 14:52:28 30108 562 51.457736919043 -108.569189376117
CSN583 CHF526 2017-08-12 14:50:27 30105 562 51.1742907222906 -108.350225840303
CSN583 CHF526 2017-08-12 14:48:26 30115 562 50.8904410138537 -108.13389718459
CSN583 CHF526 2017-08-12 14:46:25 30082 560 50.606956580212 -107.921810503696
CSN583 CHF526 2017-08-12 14:44:24 30082 560 50.3219786665035 -107.711741045885
CSN583 CHF526 2017-08-12 14:42:23 30079 564 50.0487585652854 -107.465431085033
CSN583 CHF526 2017-08-12 14:40:22 30079 564 49.7757840166916 -107.221219934867
CSN583 CHF526 2017-08-12 14:38:21 30079 564 49.5025618561392 -106.979619620008
CSN583 CHF526 2017-08-12 14:36:20 30082 566 49.2273193387249 -106.739426422113
CSN583 CHF526 2017-08-12 14:34:19 30082 562 48.951938916732 -106.502193426436
CSN583 CHF526 2017-08-12 14:32:18 30079 564 48.676698776993 -106.268103578241
CSN583 CHF526 2017-08-12 14:30:17 30079 562 48.4010134797745 -106.036557425139
CSN583 CHF526 2017-08-12 14:28:16 30079 560 48.1248714971501 -105.807504684158
CSN583 CHF526 2017-08-12 14:26:15 30085 560 47.8501608823816 -105.582442704677
CSN583 CHF526 2017-08-12 14:24:14 30082 556 47.5748989465433 -105.359704730055
CSN583 CHF526 2017-08-12 14:22:13 30079 552 47.3035702284409 -105.142687578372
CSN583 CHF526 2017-08-12 14:20:12 30079 552 47.0313826206594 -104.92772114785
CSN583 CHF526 2017-08-12 14:18:11 30079 554 46.7578653148384 -104.713199939625
CSN583 CHF526 2017-08-12 14:16:11 30079 550 46.4754740839592 -104.512769531981
CSN583 CHF526 2017-08-12 14:14:08 30075 554 46.1731385097966 -104.323546248574
CSN583 CHF526 2017-08-12 14:11:58 30075 556 45.8875339352185 -104.146718696721
CSN583 CHF526 2017-08-12 14:09:58 30112 554 45.5966096870209 -103.968617489235
CSN583 CHF526 2017-08-12 14:07:54 30112 554 45.3110688926795 -103.795755746169
CSN583 CHF526 2017-08-12 14:05:53 30115 550 45.0262328061824 -103.625209482392
CSN583 CHF526 2017-08-12 14:03:52 30112 552 44.7406929106156 -103.456083722388
CSN583 CHF526 2017-08-12 14:01:51 30108 550 44.4555855755088 -103.289068286221
CSN583 CHF526 2017-08-12 13:59:50 30112 552 44.1705725672814 -103.124574970127
CSN583 CHF526 2017-08-12 13:57:49 30108 550 43.8918692555164 -102.943198795338
CSN583 CHF526 2017-08-12 13:55:48 30112 552 43.6253802835859 -102.727275936324
CSN583 CHF526 2017-08-12 13:53:47 30023 556 43.3572312905329 -102.512153782594
CSN583 CHF526 2017-08-12 13:51:46 29213 560 43.0861748577532 -102.296899365307
CSN583 CHF526 2017-08-12 13:49:45 28563 558 42.8137947338732 -102.082862630641
CSN583 CHF526 2017-08-12 13:47:44 28114 560 42.5425456578014 -101.871874766663
CSN583 CHF526 2017-08-12 13:45:43 28107 564 42.2701103177056 -101.662084601937
CSN583 CHF526 2017-08-12 13:43:42 28140 562 41.9959852422111 -101.453106754589
CSN583 CHF526 2017-08-12 13:41:41 28140 564 41.7216895143309 -101.246158662297
CSN583 CHF526 2017-08-12 13:39:40 28143 566 41.4456574747338 -101.039992717331
CSN583 CHF526 2017-08-12 13:37:39 28130 568 41.1696865668521 -100.835534241246
CSN583 CHF526 2017-08-12 13:35:38 28140 562 40.8907014314615 -100.637370822409
CSN583 CHF526 2017-08-12 13:33:37 28140 564 40.6114380705644 -100.446064378901
CSN583 CHF526 2017-08-12 13:31:36 28146 562 40.3317690233108 -100.256068175042
CSN583 CHF526 2017-08-12 13:29:35 28140 562 40.0525108245197 -100.068153820477
CSN583 CHF526 2017-08-12 13:27:34 28173 564 39.7717450730382 -99.8809618038828
CSN583 CHF526 2017-08-12 13:25:33 28169 560 39.4915238681865 -99.6958067381486
CSN583 CHF526 2017-08-12 13:23:32 28166 562 39.2115499894221 -99.5127774251601
CSN583 CHF526 2017-08-12 13:21:31 28163 564 38.930898583685 -99.3271527974813
CSN583 CHF526 2017-08-12 13:19:30 28169 560 38.6421367767245 -99.1736331842326
CSN583 CHF526 2017-08-12 13:17:30 28196 560 38.3448573486395 -99.0259863984685
CSN583 CHF526 2017-08-12 13:15:26 28196 562 38.0520546801654 -98.881604430981
CSN583 CHF526 2017-08-12 13:13:25 28173 558 37.7599815342611 -98.7388605640626
CSN583 CHF526 2017-08-12 13:11:24 28169 554 37.4698053986877 -98.5982450332794
CSN583 CHF526 2017-08-12 13:09:23 28173 552 37.1787011721589 -98.4583198029098
CSN583 CHF526 2017-08-12 13:07:23 28166 554 36.8900993701969 -98.3207143672234
CSN583 CHF526 2017-08-12 13:05:21 28173 554 36.6017243226426 -98.1843605682814
CSN583 CHF526 2017-08-12 13:03:20 28169 552 36.3118309031493 -98.0484084435752
CSN583 CHF526 2017-08-12 13:01:19 28169 550 36.0238403313755 -97.9143930543473
CSN583 CHF526 2017-08-12 12:59:18 27904 537 35.7400866305791 -97.783556008882
CSN583 CHF526 2017-08-12 12:57:16 27116 527 35.4593553046853 -97.6559754799154
CSN583 CHF526 2017-08-12 12:55:15 26135 517 35.1980262247438 -97.5054688479166
CSN583 CHF526 2017-08-12 12:53:15 24987 503 34.9388036653028 -97.340202432901
CSN583 CHF526 2017-08-12 12:51:10 23563 494 34.6899539886247 -97.1828164099962
CSN583 CHF526 2017-08-12 12:49:08 21883 482 34.4472942700516 -97.0297315925314
CSN583 CHF526 2017-08-12 12:47:07 20226 463 34.1893491410036 -97.015073387758
CSN583 CHF526 2017-08-12 12:45:05 18048 449 33.9349248794667 -97.0476057288198
CSN583 CHF526 2017-08-12 12:43:05 15663 430 33.6892169546132 -97.0788415658275
CSN583 CHF526 2017-08-12 12:41:03 12864 410 33.457098824876 -97.1082557665825
CSN583 CHF526 2017-08-12 12:39:02 10423 358 33.2384204618015 -97.135825524733
CSN583 CHF526 2017-08-12 12:37:01 7470 307 33.0578088890158 -97.1590274193101
CSN583 CHF526 2017-08-12 12:35:00 4872 235 32.9026599370914 -97.1835545858602
CSN583 CHF526 2017-08-12 12:32:59 2595 208 32.84421945584 -97.069615352556
CSN583 CHF526 2017-08-12 12:30:59 0 0 32.9150162039155 -97.0546440883437
CSN583 CHF526 2017-08-12 12:28:54 0 23 32.911545462885 -97.0526402246843
CSN583 CHF526 2017-08-12 12:26:53 0 8 32.9018552689253 -97.052694203911
CSN583 CHF526 2017-08-12 12:24:53 0 14 32.8979394318921 -97.0578836563203
CSN583 CHF526 2017-08-12 12:22:51 0 0 32.8965034483834 -97.0606518040275
CSN583 CHF526 2017-08-12 12:20:41 0 0 32.8965179333339 -97.0603499648444
CSN583 CHF526 2017-08-12 12:18:40 0 0 32.8958178132918 -97.0601476807156
CSN583 CHF526 2017-08-12 12:16:39 0 0 32.895579090102 -97.0601468626223
CSN583 CHF526 2017-08-12 12:14:37 0 0 32.895579090102 -97.0601468626223
CSN583 CHF526 2017-08-12 12:12:36 0 0 32.895579090102 -97.0601468626223
CSN583 CHF526 2017-08-12 12:10:36 0 0 32.895579090102 -97.0601468626223